Time;durP1;ratioP1;P1;durP2;ratioP2;P2;SDS_P1;SDS_P2;PMS_P1;PMS_P2;Temp;Humidity;BMP_temperature;BMP_pressure;BME280_temperature;BME280_humidity;BME280_pressure;Samples;Min_cycle;Max_cycle;Signal;HPM_P1;HPM_P2
2022/01/03 00:00:10;;;;;;;15.88;2.60;;;9.60;99.90;;;;;;5034119;28;20050;-50
2022/01/03 00:02:36;;;;;;;16.48;3.20;;;9.60;99.90;;;;;;5033352;28;20041;-50
2022/01/03 00:05:02;;;;;;;20.67;3.20;;;9.60;99.90;;;;;;5034135;28;20374;-52
2022/01/03 00:07:27;;;;;;;19.88;3.00;;;9.60;99.90;;;;;;5016667;28;20037;-51
2022/01/03 00:09:53;;;;;;;23.17;3.60;;;9.60;99.90;;;;;;5029035;28;20052;-52
2022/01/03 00:12:20;;;;;;;21.15;3.17;;;9.70;99.90;;;;;;5033307;28;20038;-50
2022/01/03 00:14:48;;;;;;;16.30;2.92;;;9.70;99.90;;;;;;5033845;28;20413;-50
2022/01/03 00:17:14;;;;;;;16.30;3.13;;;9.70;99.90;;;;;;5030703;28;20068;-50
2022/01/03 00:19:39;;;;;;;21.25;3.78;;;9.70;99.90;;;;;;5033577;28;20500;-51
2022/01/03 00:22:11;;;;;;;28.98;3.55;;;9.70;99.90;;;;;;5033609;28;20045;-50
2022/01/03 00:24:41;;;;;;;18.45;3.05;;;9.70;99.90;;;;;;5016669;28;20048;-49
2022/01/03 00:27:13;;;;;;;19.25;3.35;;;9.70;99.90;;;;;;5033856;28;20095;-50
2022/01/03 00:29:50;;;;;;;20.55;2.83;;;9.80;99.90;;;;;;5032549;28;20049;-49
2022/01/03 00:32:15;;;;;;;17.25;2.95;;;9.80;99.90;;;;;;5033782;28;20042;-49
2022/01/03 00:34:42;;;;;;;15.18;2.60;;;9.70;99.90;;;;;;5016144;28;20038;-49
2022/01/03 00:37:09;;;;;;;16.27;2.63;;;9.70;99.90;;;;;;4999857;28;20068;-49
2022/01/03 00:39:36;;;;;;;19.65;3.25;;;9.70;99.90;;;;;;5033668;28;20052;-49
2022/01/03 00:42:02;;;;;;;23.33;3.38;;;9.80;99.90;;;;;;5033634;28;20044;-48
2022/01/03 00:44:28;;;;;;;18.42;2.35;;;9.80;99.90;;;;;;5015207;28;20056;-49
2022/01/03 00:46:55;;;;;;;22.50;2.83;;;9.80;99.90;;;;;;5025104;28;20046;-49
2022/01/03 00:49:21;;;;;;;22.73;3.30;;;9.80;99.90;;;;;;5033289;28;20075;-49
2022/01/03 00:51:47;;;;;;;15.60;3.30;;;9.90;99.90;;;;;;5033384;28;20456;-48
2022/01/03 00:54:13;;;;;;;18.05;2.80;;;9.90;99.90;;;;;;4999226;28;20041;-49
2022/01/03 00:56:54;;;;;;;17.33;3.35;;;9.90;99.90;;;;;;5033076;28;20041;-48
2022/01/03 00:59:53;;;;;;;25.92;4.47;;;9.80;99.90;;;;;;5015314;28;20104;-49
2022/01/03 01:02:20;;;;;;;16.73;2.90;;;9.80;99.90;;;;;;5029587;23;20569;-51
2022/01/03 01:04:46;;;;;;;16.58;2.70;;;9.80;99.90;;;;;;5008383;28;20153;-51
2022/01/03 01:07:13;;;;;;;20.98;4.22;;;9.80;99.90;;;;;;5005383;28;20120;-49
2022/01/03 01:09:40;;;;;;;18.90;3.30;;;9.80;99.90;;;;;;5012221;28;20520;-49
2022/01/03 01:12:06;;;;;;;17.20;2.88;;;9.80;99.90;;;;;;4993184;28;20085;-49
2022/01/03 01:14:32;;;;;;;21.05;3.30;;;9.80;99.90;;;;;;4985538;28;20045;-51
2022/01/03 01:16:58;;;;;;;26.23;3.72;;;9.80;99.90;;;;;;4993724;28;20446;-53
2022/01/03 01:19:26;;;;;;;20.73;3.58;;;9.80;99.90;;;;;;4993416;28;20050;-48
2022/01/03 01:21:53;;;;;;;16.45;3.22;;;9.80;99.90;;;;;;4993139;28;20053;-49
2022/01/03 01:24:22;;;;;;;17.95;2.90;;;9.80;99.90;;;;;;4992839;28;20593;-52
2022/01/03 01:29:35;;;;;;;18.52;3.00;;;9.90;99.90;;;;;;4993065;28;20057;-52
2022/01/03 01:32:03;;;;;;;15.43;3.15;;;9.90;99.90;;;;;;4992920;28;20772;-52
2022/01/03 01:34:30;;;;;;;18.23;3.33;;;9.90;99.90;;;;;;4993430;28;20038;-51
2022/01/03 01:36:58;;;;;;;21.80;3.50;;;9.90;99.90;;;;;;4993246;28;20542;-49
2022/01/03 01:39:27;;;;;;;16.10;2.67;;;9.90;99.90;;;;;;4992683;28;20053;-49
2022/01/03 01:41:59;;;;;;;18.77;3.95;;;9.90;99.90;;;;;;4993058;28;20042;-50
2022/01/03 01:44:25;;;;;;;22.17;3.33;;;9.90;99.90;;;;;;4992807;28;20104;-49
2022/01/03 01:46:54;;;;;;;20.83;3.33;;;9.90;99.90;;;;;;4991806;28;20069;-54
2022/01/03 01:49:23;;;;;;;17.38;3.45;;;9.90;99.90;;;;;;4984970;28;20080;-51
2022/01/03 01:52:00;;;;;;;18.17;3.50;;;10.00;99.90;;;;;;4992494;28;20065;-50
2022/01/03 01:54:33;;;;;;;16.67;3.45;;;10.00;99.90;;;;;;4992679;28;20066;-49
2022/01/03 01:57:20;;;;;;;23.90;3.40;;;10.00;99.90;;;;;;4992799;28;20490;-50
2022/01/03 01:59:55;;;;;;;22.90;3.80;;;9.90;99.90;;;;;;4993081;28;20449;-49
2022/01/03 02:02:35;;;;;;;19.80;3.95;;;9.90;99.90;;;;;;4992413;28;20048;-51
2022/01/03 02:05:27;;;;;;;16.30;2.88;;;9.90;99.90;;;;;;5008097;28;20046;-50
2022/01/03 02:08:07;;;;;;;27.80;3.28;;;9.90;99.90;;;;;;4992369;28;20053;-52
2022/01/03 02:10:39;;;;;;;23.23;3.22;;;9.90;99.90;;;;;;4973238;28;20050;-48
2022/01/03 02:13:05;;;;;;;14.85;3.15;;;9.90;99.90;;;;;;4973024;28;20125;-50
2022/01/03 02:15:32;;;;;;;23.05;3.72;;;9.90;99.90;;;;;;4973218;28;20122;-50
2022/01/03 02:17:59;;;;;;;20.73;3.25;;;9.80;99.90;;;;;;4992444;28;20104;-49
2022/01/03 02:20:26;;;;;;;23.27;3.35;;;9.70;99.90;;;;;;4991918;28;20030;-51
2022/01/03 02:22:54;;;;;;;18.38;2.72;;;9.70;99.90;;;;;;4990740;28;20089;-51
2022/01/03 02:25:22;;;;;;;17.33;2.85;;;9.70;99.90;;;;;;4992462;28;20092;-49
2022/01/03 02:27:50;;;;;;;18.85;3.30;;;9.70;99.90;;;;;;4991909;28;20392;-52
2022/01/03 02:30:19;;;;;;;24.25;3.50;;;9.70;99.90;;;;;;4992023;28;20046;-52
2022/01/03 02:32:45;;;;;;;19.88;3.25;;;9.70;99.90;;;;;;4989827;28;20042;-54
2022/01/03 02:35:11;;;;;;;19.73;4.25;;;9.60;99.90;;;;;;4973178;28;20049;-52
2022/01/03 02:37:39;;;;;;;24.80;4.30;;;9.60;99.90;;;;;;4986228;28;20074;-53
2022/01/03 02:40:06;;;;;;;25.17;3.17;;;9.70;99.90;;;;;;4992069;28;20117;-53
2022/01/03 02:42:32;;;;;;;21.38;3.67;;;9.60;99.90;;;;;;4991678;28;20538;-51
2022/01/03 02:45:05;;;;;;;24.90;3.60;;;9.60;99.90;;;;;;4991914;28;20074;-52
2022/01/03 02:47:31;;;;;;;25.25;3.97;;;9.50;99.90;;;;;;4990794;28;20422;-53
2022/01/03 02:49:57;;;;;;;27.45;3.58;;;9.50;99.90;;;;;;4991197;28;20041;-53
2022/01/03 02:52:23;;;;;;;23.55;3.40;;;9.50;99.90;;;;;;4991787;28;20050;-49
2022/01/03 02:54:50;;;;;;;19.15;3.40;;;9.50;99.90;;;;;;4992968;28;20050;-49
2022/01/03 02:57:22;;;;;;;21.98;3.83;;;9.50;99.90;;;;;;4990894;28;20030;-49
2022/01/03 02:59:57;;;;;;;26.50;3.95;;;9.40;99.90;;;;;;4989292;28;20482;-49
2022/01/03 03:02:24;;;;;;;26.52;3.90;;;9.40;99.90;;;;;;4990745;28;20402;-49
2022/01/03 03:04:55;;;;;;;24.63;3.20;;;9.50;99.90;;;;;;4991660;28;20038;-51
2022/01/03 03:07:23;;;;;;;27.48;3.80;;;9.40;99.90;;;;;;4991792;28;20050;-51
2022/01/03 03:09:49;;;;;;;21.25;3.53;;;9.40;99.90;;;;;;4990483;28;20080;-51
2022/01/03 03:12:14;;;;;;;25.55;3.90;;;9.30;99.90;;;;;;4991738;28;20426;-50
2022/01/03 03:14:40;;;;;;;23.45;3.67;;;9.40;99.90;;;;;;4991689;28;20581;-52
2022/01/03 03:17:06;;;;;;;24.08;4.38;;;9.40;99.90;;;;;;4991809;28;20454;-52
2022/01/03 03:19:31;;;;;;;23.30;4.18;;;9.30;99.90;;;;;;4991490;28;20132;-50
2022/01/03 03:21:57;;;;;;;23.80;3.95;;;9.30;99.90;;;;;;4991652;28;20398;-51
2022/01/03 03:24:22;;;;;;;30.52;4.45;;;9.30;99.90;;;;;;4991154;28;20034;-49
2022/01/03 03:26:48;;;;;;;16.73;3.10;;;9.20;99.90;;;;;;4991643;28;20053;-49
2022/01/03 03:29:14;;;;;;;22.90;4.30;;;9.30;99.90;;;;;;4991593;28;20034;-52
2022/01/03 03:31:40;;;;;;;29.63;3.38;;;9.20;99.90;;;;;;4990859;28;20039;-49
2022/01/03 03:34:05;;;;;;;21.33;3.78;;;9.30;99.90;;;;;;4992619;28;20513;-49
2022/01/03 03:36:31;;;;;;;23.75;3.80;;;9.30;99.90;;;;;;4995430;28;20050;-49
2022/01/03 03:38:56;;;;;;;32.38;4.63;;;9.30;99.90;;;;;;4995151;28;20113;-52
2022/01/03 03:41:22;;;;;;;19.80;3.85;;;9.30;99.90;;;;;;4995050;28;20108;-52
2022/01/03 03:43:48;;;;;;;22.67;3.92;;;9.30;99.90;;;;;;4994850;28;20041;-49
2022/01/03 03:46:13;;;;;;;25.58;3.75;;;9.30;99.90;;;;;;4994924;28;20034;-49
2022/01/03 03:48:39;;;;;;;22.70;3.05;;;9.30;99.90;;;;;;4994849;28;20035;-52
2022/01/03 03:51:05;;;;;;;24.75;3.92;;;9.30;99.90;;;;;;4995418;28;20034;-52
2022/01/03 03:53:31;;;;;;;27.75;4.25;;;9.40;99.90;;;;;;4994713;28;20038;-53
2022/01/03 03:55:57;;;;;;;27.98;4.05;;;9.40;99.90;;;;;;4994874;28;20084;-52
2022/01/03 03:58:22;;;;;;;24.23;3.80;;;9.40;99.90;;;;;;4995090;28;20121;-49
2022/01/03 04:00:48;;;;;;;21.55;4.45;;;9.40;99.90;;;;;;4994195;28;20508;-49
2022/01/03 04:03:13;;;;;;;22.27;3.38;;;9.50;99.90;;;;;;4994380;28;20450;-50
2022/01/03 04:05:39;;;;;;;23.83;4.22;;;9.40;99.90;;;;;;4994604;28;20503;-51
2022/01/03 04:08:05;;;;;;;22.05;3.00;;;9.50;99.90;;;;;;4994577;28;20042;-49
2022/01/03 04:10:31;;;;;;;23.50;3.42;;;9.40;99.90;;;;;;4994708;28;20085;-52
2022/01/03 04:12:56;;;;;;;24.77;3.75;;;9.50;99.90;;;;;;4994661;28;20483;-52
2022/01/03 04:15:22;;;;;;;25.00;3.50;;;9.50;99.90;;;;;;4994080;28;20514;-49
2022/01/03 04:17:47;;;;;;;21.15;4.30;;;9.40;99.90;;;;;;4994672;28;20399;-51
2022/01/03 04:20:15;;;;;;;20.88;3.60;;;9.40;99.90;;;;;;5009543;28;20125;-52
2022/01/03 04:22:42;;;;;;;23.42;3.65;;;9.50;99.90;;;;;;4994686;28;20403;-49
2022/01/03 04:25:09;;;;;;;23.45;3.92;;;9.50;99.90;;;;;;4994088;28;20043;-49
2022/01/03 04:27:34;;;;;;;22.60;4.35;;;9.50;99.90;;;;;;4993876;28;20121;-50
2022/01/03 04:30:00;;;;;;;26.38;3.80;;;9.50;99.90;;;;;;4994279;28;20125;-49
2022/01/03 04:32:26;;;;;;;25.75;3.78;;;9.60;99.90;;;;;;4994123;28;20395;-51
2022/01/03 04:34:51;;;;;;;28.58;4.90;;;9.60;99.90;;;;;;4994304;28;20376;-52
2022/01/03 04:37:17;;;;;;;23.65;3.58;;;9.60;99.90;;;;;;4994039;28;20517;-50
2022/01/03 04:39:44;;;;;;;27.48;3.67;;;9.60;99.90;;;;;;4993550;28;20045;-49
2022/01/03 04:42:09;;;;;;;17.70;3.55;;;9.60;99.90;;;;;;4994023;28;20050;-49
2022/01/03 04:44:35;;;;;;;22.30;4.10;;;9.60;99.90;;;;;;4994029;28;20038;-50
2022/01/03 04:47:02;;;;;;;28.75;4.05;;;9.60;99.90;;;;;;4993075;28;20042;-49
2022/01/03 04:49:28;;;;;;;27.77;4.45;;;9.60;99.90;;;;;;4993879;28;20490;-52
2022/01/03 04:51:53;;;;;;;26.60;4.63;;;9.60;99.90;;;;;;4993693;28;20057;-50
2022/01/03 04:54:19;;;;;;;27.35;4.30;;;9.60;99.90;;;;;;4993433;28;20065;-50
2022/01/03 04:56:45;;;;;;;24.27;3.67;;;9.60;99.90;;;;;;4994050;28;20129;-49
2022/01/03 04:59:11;;;;;;;26.98;4.53;;;9.60;99.90;;;;;;4993512;28;20046;-52
2022/01/03 05:01:36;;;;;;;27.70;4.22;;;9.60;99.90;;;;;;4993645;28;20576;-52
2022/01/03 05:04:02;;;;;;;23.55;4.07;;;9.60;99.90;;;;;;4992746;28;20038;-49
2022/01/03 05:06:27;;;;;;;28.05;4.20;;;9.50;99.90;;;;;;4993146;28;20057;-49
2022/01/03 05:08:53;;;;;;;29.70;4.35;;;9.60;99.90;;;;;;4993005;28;20072;-51
2022/01/03 05:11:19;;;;;;;25.30;3.95;;;9.50;99.90;;;;;;4993641;28;20043;-49
2022/01/03 05:13:44;;;;;;;22.88;4.53;;;9.50;99.90;;;;;;4993487;28;20046;-49
2022/01/03 05:16:10;;;;;;;29.77;4.32;;;9.50;99.90;;;;;;4993497;28;20073;-49
2022/01/03 05:18:36;;;;;;;23.38;4.43;;;9.50;99.90;;;;;;4993925;28;20038;-49
2022/01/03 05:21:02;;;;;;;30.13;6.03;;;9.50;99.90;;;;;;4993300;28;20038;-49
2022/01/03 05:23:28;;;;;;;27.33;4.63;;;9.50;99.90;;;;;;4990310;28;20057;-50
2022/01/03 05:25:53;;;;;;;25.45;3.80;;;9.50;99.90;;;;;;4993194;28;20034;-49
2022/01/03 05:28:19;;;;;;;28.90;4.88;;;9.40;99.90;;;;;;4993303;28;20126;-48
2022/01/03 05:30:44;;;;;;;28.65;4.78;;;9.40;99.90;;;;;;4993137;28;20128;-48
2022/01/03 05:33:10;;;;;;;32.05;5.00;;;9.40;99.90;;;;;;4992960;28;20048;-49
2022/01/03 05:35:36;;;;;;;29.40;4.35;;;9.40;99.90;;;;;;4992522;28;20085;-51
2022/01/03 05:38:02;;;;;;;25.83;4.53;;;9.40;99.90;;;;;;4993229;28;20537;-51
2022/01/03 05:40:28;;;;;;;24.65;4.53;;;9.40;99.90;;;;;;4992710;28;20391;-51
2022/01/03 05:42:53;;;;;;;33.63;4.72;;;9.30;99.90;;;;;;4992855;28;20070;-52
2022/01/03 05:45:19;;;;;;;23.63;4.32;;;9.30;99.90;;;;;;4993000;28;20092;-50
2022/01/03 05:47:46;;;;;;;28.52;4.45;;;9.30;99.90;;;;;;4991998;28;20049;-49
2022/01/03 05:50:17;;;;;;;27.92;4.55;;;9.20;99.90;;;;;;4992599;28;20038;-54
2022/01/03 05:52:43;;;;;;;33.13;5.38;;;9.20;99.90;;;;;;4991843;28;20509;-54
2022/01/03 05:55:10;;;;;;;31.17;4.55;;;9.20;99.90;;;;;;4993160;28;20077;-54
2022/01/03 05:57:35;;;;;;;27.15;4.35;;;9.10;99.90;;;;;;4993011;28;20129;-54
2022/01/03 06:00:03;;;;;;;28.70;5.03;;;9.10;99.90;;;;;;4992981;28;20514;-52
2022/01/03 06:02:38;;;;;;;27.42;4.50;;;9.10;99.90;;;;;;4991830;28;20049;-52
2022/01/03 06:05:06;;;;;;;35.28;4.82;;;9.20;99.90;;;;;;4992764;28;20042;-52
2022/01/03 06:07:31;;;;;;;32.25;6.25;;;9.10;99.90;;;;;;4992710;28;20383;-52
2022/01/03 06:09:57;;;;;;;36.03;4.95;;;9.10;99.90;;;;;;4989475;28;20061;-52
2022/01/03 06:12:22;;;;;;;27.58;5.57;;;9.10;99.90;;;;;;4972978;28;20046;-55
2022/01/03 06:14:48;;;;;;;35.85;5.18;;;9.20;99.90;;;;;;4982136;28;20064;-52
2022/01/03 06:17:16;;;;;;;30.58;5.20;;;9.10;99.90;;;;;;4992660;28;20038;-52
2022/01/03 06:19:42;;;;;;;34.80;4.93;;;9.10;99.90;;;;;;4992566;28;20050;-54
2022/01/03 06:22:09;;;;;;;33.65;5.72;;;9.10;99.90;;;;;;4990882;28;20052;-53
2022/01/03 06:24:37;;;;;;;28.67;4.57;;;9.00;99.90;;;;;;4992649;28;20042;-53
2022/01/03 06:27:03;;;;;;;29.70;4.88;;;9.00;99.90;;;;;;4992515;28;20046;-52
2022/01/03 06:29:28;;;;;;;35.88;5.85;;;9.00;99.90;;;;;;4992069;28;20038;-52
2022/01/03 06:31:54;;;;;;;32.55;4.88;;;9.00;99.90;;;;;;4992227;28;20050;-53
2022/01/03 06:34:19;;;;;;;33.03;5.30;;;9.00;99.90;;;;;;4992387;28;20062;-53
2022/01/03 06:36:46;;;;;;;32.20;5.30;;;9.00;99.90;;;;;;4992121;28;20072;-54
2022/01/03 06:39:12;;;;;;;34.38;6.05;;;9.00;99.90;;;;;;4975067;28;20042;-54
2022/01/03 06:41:39;;;;;;;28.95;4.40;;;9.00;99.90;;;;;;4972940;28;20054;-52
2022/01/03 06:44:05;;;;;;;32.05;5.38;;;9.10;99.90;;;;;;4984225;28;20520;-52
2022/01/03 06:46:31;;;;;;;33.67;5.57;;;9.10;99.90;;;;;;4992034;28;20049;-52
2022/01/03 06:48:56;;;;;;;29.95;4.93;;;9.10;99.90;;;;;;4992552;28;20121;-52
2022/01/03 06:51:22;;;;;;;32.90;4.80;;;9.10;99.90;;;;;;4991224;28;20046;-54
2022/01/03 06:53:47;;;;;;;30.52;5.38;;;9.10;99.90;;;;;;4991808;28;20562;-55
2022/01/03 06:56:13;;;;;;;37.13;5.88;;;9.10;99.90;;;;;;4990923;28;20061;-51
2022/01/03 06:58:38;;;;;;;37.35;5.75;;;9.20;99.90;;;;;;4991800;28;20402;-53
2022/01/03 07:01:04;;;;;;;50.95;5.95;;;9.10;99.90;;;;;;4991466;28;20414;-52
2022/01/03 07:03:31;;;;;;;39.03;6.20;;;9.20;99.90;;;;;;5014543;22;20046;-53
2022/01/03 07:05:56;;;;;;;39.30;5.95;;;9.20;99.90;;;;;;5011736;28;20092;-53
2022/01/03 07:08:22;;;;;;;44.05;6.15;;;9.20;99.90;;;;;;5011933;28;20481;-53
2022/01/03 07:10:49;;;;;;;36.20;5.13;;;9.20;99.90;;;;;;5014835;28;20037;-54
2022/01/03 07:13:15;;;;;;;30.38;5.13;;;9.20;99.90;;;;;;5006891;28;20038;-53
2022/01/03 07:21:12;;;;;;;36.72;7.07;;;9.20;99.90;;;;;;5015785;28;20137;-53
2022/01/03 07:23:39;;;;;;;33.17;6.00;;;9.20;99.90;;;;;;5015332;28;20116;-54
2022/01/03 07:26:04;;;;;;;31.80;5.18;;;9.20;99.90;;;;;;5002815;28;20121;-54
2022/01/03 07:28:30;;;;;;;36.17;6.35;;;9.20;99.90;;;;;;5015741;28;20281;-54
2022/01/03 07:30:55;;;;;;;45.70;5.97;;;9.30;99.90;;;;;;4997566;28;20042;-53
2022/01/03 07:33:21;;;;;;;46.03;7.15;;;9.30;99.90;;;;;;5015765;28;20033;-54
2022/01/03 07:35:46;;;;;;;36.15;6.15;;;9.30;99.90;;;;;;4992562;28;20132;-50
2022/01/03 07:38:12;;;;;;;36.53;6.28;;;9.40;99.90;;;;;;5004045;28;20169;-53
2022/01/03 07:40:37;;;;;;;43.22;6.20;;;9.40;99.90;;;;;;5003265;28;20121;-51
2022/01/03 07:43:03;;;;;;;34.67;5.78;;;9.40;99.90;;;;;;5004005;28;20143;-52
2022/01/03 07:45:29;;;;;;;29.98;5.20;;;9.40;99.90;;;;;;4984406;28;20599;-51
2022/01/03 07:47:54;;;;;;;35.92;4.72;;;9.50;99.90;;;;;;5012495;28;20087;-53
2022/01/03 07:50:21;;;;;;;42.25;6.38;;;9.50;99.90;;;;;;4999223;28;20038;-51
2022/01/03 07:52:46;;;;;;;35.15;5.13;;;9.50;99.90;;;;;;5012387;28;20421;-52
2022/01/03 07:55:13;;;;;;;37.22;5.72;;;9.50;99.90;;;;;;4994139;28;20048;-53
2022/01/03 07:57:39;;;;;;;34.65;5.93;;;9.60;99.90;;;;;;4987670;28;20049;-48
2022/01/03 08:00:08;;;;;;;37.67;5.60;;;9.60;99.90;;;;;;5001686;28;20509;-52
2022/01/03 08:02:34;;;;;;;33.65;4.93;;;9.70;99.90;;;;;;5013881;28;20101;-51
2022/01/03 08:04:59;;;;;;;36.80;5.45;;;9.70;99.90;;;;;;5015270;28;20457;-53
2022/01/03 08:07:25;;;;;;;36.95;5.88;;;9.80;99.90;;;;;;5014147;28;20403;-53
2022/01/03 08:09:51;;;;;;;33.63;5.57;;;9.80;99.90;;;;;;5012059;28;20495;-52
2022/01/03 08:12:17;;;;;;;32.08;5.38;;;9.80;99.90;;;;;;5006541;28;20045;-51
2022/01/03 08:14:44;;;;;;;39.20;4.82;;;9.80;99.90;;;;;;5005538;28;20096;-49
2022/01/03 08:17:09;;;;;;;32.80;5.55;;;9.80;99.90;;;;;;5001363;28;20041;-50
2022/01/03 08:19:35;;;;;;;30.92;4.80;;;9.90;99.90;;;;;;4988267;28;20038;-50
2022/01/03 08:22:00;;;;;;;27.45;4.50;;;9.90;99.90;;;;;;5010735;28;20113;-50
2022/01/03 08:24:26;;;;;;;33.58;5.20;;;9.90;99.90;;;;;;5005522;28;20034;-51
2022/01/03 08:26:52;;;;;;;34.88;4.80;;;9.80;99.90;;;;;;4988470;28;20113;-54
2022/01/03 08:29:18;;;;;;;27.40;4.35;;;9.80;99.90;;;;;;5013427;28;20069;-53
2022/01/03 08:31:43;;;;;;;30.35;4.82;;;9.90;99.90;;;;;;5013701;28;20038;-54
2022/01/03 08:34:09;;;;;;;35.35;5.32;;;9.90;99.90;;;;;;5012826;28;20120;-51
2022/01/03 08:36:34;;;;;;;34.95;5.00;;;9.90;99.90;;;;;;5009677;28;20037;-53
2022/01/03 08:39:00;;;;;;;30.40;5.15;;;9.90;99.90;;;;;;5013766;28;20038;-52
2022/01/03 08:41:26;;;;;;;30.10;5.70;;;9.90;99.90;;;;;;5009290;28;20034;-53
2022/01/03 08:43:52;;;;;;;37.83;5.63;;;9.90;99.90;;;;;;5001262;28;20395;-51
2022/01/03 08:46:19;;;;;;;34.83;5.72;;;9.90;99.90;;;;;;5005296;28;20052;-51
2022/01/03 08:48:44;;;;;;;38.70;5.15;;;10.00;99.90;;;;;;5005099;28;20081;-52
2022/01/03 08:51:10;;;;;;;34.58;6.10;;;9.90;99.90;;;;;;5007320;28;20062;-54
2022/01/03 08:53:36;;;;;;;31.85;4.50;;;9.90;99.90;;;;;;5012435;28;20038;-54
2022/01/03 08:56:03;;;;;;;32.60;4.68;;;9.90;99.90;;;;;;5013310;28;20038;-50
2022/01/03 08:58:28;;;;;;;34.53;5.38;;;9.90;99.90;;;;;;5013501;28;20041;-53
2022/01/03 09:00:55;;;;;;;29.73;5.20;;;9.90;99.90;;;;;;4995668;28;20041;-54
2022/01/03 09:03:20;;;;;;;32.47;5.38;;;9.90;99.90;;;;;;5011916;28;20029;-54
2022/01/03 09:05:46;;;;;;;28.35;5.30;;;10.00;99.90;;;;;;5011615;28;20045;-51
2022/01/03 09:08:12;;;;;;;30.75;4.13;;;10.10;99.90;;;;;;5012168;28;20036;-51
2022/01/03 09:10:39;;;;;;;22.80;4.88;;;10.10;99.90;;;;;;5012774;28;20088;-54
2022/01/03 09:13:04;;;;;;;31.30;5.47;;;10.10;99.90;;;;;;5013137;28;20041;-54
2022/01/03 09:15:31;;;;;;;32.22;5.35;;;10.10;99.90;;;;;;5012800;28;20397;-54
2022/01/03 09:17:56;;;;;;;27.98;5.32;;;10.10;99.90;;;;;;5008673;28;20034;-54
2022/01/03 09:20:22;;;;;;;32.33;5.35;;;10.10;99.90;;;;;;5008277;28;20129;-54
2022/01/03 09:22:54;;;;;;;33.55;4.65;;;10.10;99.90;;;;;;5011758;28;20041;-54
2022/01/03 09:30:50;;;;;;;32.80;4.68;;;10.20;99.90;;;;;;5012671;28;20517;-49
2022/01/03 09:33:16;;;;;;;31.25;5.25;;;10.20;99.90;;;;;;5011547;28;20037;-50
2022/01/03 09:35:42;;;;;;;34.22;4.78;;;10.20;99.90;;;;;;4993254;28;20180;-51
2022/01/03 09:38:08;;;;;;;32.75;5.57;;;10.30;99.90;;;;;;5012760;28;20451;-54
2022/01/03 09:40:37;;;;;;;28.85;4.47;;;10.30;99.90;;;;;;5002646;28;20065;-51
2022/01/03 09:43:03;;;;;;;30.40;5.60;;;10.30;99.90;;;;;;5007271;28;20041;-51
2022/01/03 09:45:32;;;;;;;35.65;4.97;;;10.30;99.90;;;;;;5011647;28;20125;-51
2022/01/03 09:48:00;;;;;;;34.13;5.38;;;10.30;99.90;;;;;;5004277;28;20128;-53
2022/01/03 09:50:26;;;;;;;30.38;5.35;;;10.30;99.90;;;;;;5011805;28;20512;-53
2022/01/03 09:52:52;;;;;;;32.85;5.32;;;10.30;99.90;;;;;;5005054;28;20437;-52
2022/01/03 09:55:20;;;;;;;31.35;4.70;;;10.30;99.90;;;;;;5008917;28;20034;-53
2022/01/03 09:57:47;;;;;;;27.13;5.13;;;10.30;99.90;;;;;;5005681;28;20080;-49
2022/01/03 10:00:16;;;;;;;26.05;4.18;;;10.30;99.90;;;;;;5011853;28;20107;-50
2022/01/03 10:02:44;;;;;;;30.35;4.35;;;10.30;99.90;;;;;;4987842;28;20080;-49
2022/01/03 10:05:10;;;;;;;31.10;5.47;;;10.30;99.90;;;;;;5011792;28;20041;-52
2022/01/03 10:07:39;;;;;;;27.80;4.60;;;10.30;99.90;;;;;;5012251;28;20088;-50
2022/01/03 10:10:05;;;;;;;32.90;5.55;;;10.30;99.90;;;;;;5012204;28;20042;-50
2022/01/03 10:12:31;;;;;;;30.15;4.78;;;10.40;99.90;;;;;;5011912;28;20498;-52
2022/01/03 10:14:58;;;;;;;36.08;5.70;;;10.30;99.90;;;;;;5012058;28;20049;-55
2022/01/03 10:17:24;;;;;;;36.70;5.78;;;10.30;99.90;;;;;;5012386;28;20061;-50
2022/01/03 10:19:55;;;;;;;31.75;4.90;;;10.30;99.90;;;;;;5012001;28;20042;-51
2022/01/03 10:22:23;;;;;;;32.17;5.60;;;10.30;99.90;;;;;;5011549;28;20502;-51
2022/01/03 10:24:49;;;;;;;32.70;5.47;;;10.40;99.90;;;;;;5012139;28;20042;-49
2022/01/03 10:27:14;;;;;;;25.98;4.45;;;10.40;99.90;;;;;;5011935;28;20045;-49
2022/01/03 10:29:41;;;;;;;33.17;5.20;;;10.40;99.90;;;;;;5011739;28;20128;-53
2022/01/03 10:32:11;;;;;;;33.28;5.47;;;10.40;99.90;;;;;;5011843;28;20096;-49
2022/01/03 10:34:36;;;;;;;30.55;5.53;;;10.50;99.90;;;;;;5012066;28;20038;-50
2022/01/03 10:37:12;;;;;;;28.52;4.80;;;10.50;99.90;;;;;;5011420;28;20100;-52
2022/01/03 10:39:38;;;;;;;28.98;5.18;;;10.50;99.90;;;;;;5011627;28;20379;-51
2022/01/03 10:42:14;;;;;;;29.85;4.93;;;10.50;99.90;;;;;;5011398;28;20044;-51
2022/01/03 10:44:41;;;;;;;31.73;6.32;;;10.40;99.90;;;;;;5011235;28;20387;-52
2022/01/03 10:47:09;;;;;;;28.88;5.88;;;10.50;99.90;;;;;;5011946;28;20046;-51
2022/01/03 10:49:37;;;;;;;27.98;4.93;;;10.50;99.90;;;;;;5011733;28;20069;-50
2022/01/03 10:52:16;;;;;;;28.25;5.20;;;10.50;99.90;;;;;;5011229;28;20099;-50
2022/01/03 10:54:43;;;;;;;30.83;5.20;;;10.40;99.90;;;;;;5011604;28;20064;-50
2022/01/03 10:57:08;;;;;;;26.63;4.68;;;10.40;99.90;;;;;;5011825;28;20041;-51
2022/01/03 10:59:36;;;;;;;37.10;5.25;;;10.50;99.90;;;;;;5011974;28;20045;-51
2022/01/03 11:02:04;;;;;;;36.45;5.85;;;10.50;99.90;;;;;;5011448;28;20485;-51
2022/01/03 11:04:49;;;;;;;26.75;4.43;;;10.50;99.90;;;;;;5011827;28;20042;-51
2022/01/03 11:13:04;;;;;;;28.80;5.25;;;10.60;99.90;;;;;;5011330;28;20074;-51
2022/01/03 11:15:30;;;;;;;30.30;5.22;;;10.60;99.90;;;;;;5011561;28;20038;-52
2022/01/03 11:18:16;;;;;;;23.77;4.78;;;10.60;99.90;;;;;;5011917;28;20117;-54
2022/01/03 11:20:43;;;;;;;24.85;4.82;;;10.60;99.90;;;;;;5011065;28;20478;-54
2022/01/03 11:23:09;;;;;;;31.55;5.20;;;10.60;99.90;;;;;;5010961;28;20034;-52
2022/01/03 11:25:36;;;;;;;33.08;5.07;;;10.60;99.90;;;;;;5011365;28;20049;-52
2022/01/03 11:28:02;;;;;;;26.88;5.03;;;10.60;99.90;;;;;;5011640;28;20042;-54
2022/01/03 11:30:29;;;;;;;29.58;4.60;;;10.70;99.90;;;;;;5011354;28;20050;-53
2022/01/03 11:32:56;;;;;;;31.40;4.65;;;10.70;99.90;;;;;;5010870;28;20038;-52
2022/01/03 11:35:22;;;;;;;31.08;5.28;;;10.70;99.90;;;;;;5011363;28;20045;-51
2022/01/03 11:37:49;;;;;;;24.42;4.82;;;10.70;99.90;;;;;;5011343;28;20042;-54
2022/01/03 11:40:16;;;;;;;25.65;4.70;;;10.70;99.90;;;;;;5011556;28;20140;-54
2022/01/03 11:42:43;;;;;;;26.13;4.80;;;10.80;99.90;;;;;;5011164;28;20050;-54
2022/01/03 11:45:10;;;;;;;27.80;4.88;;;10.70;99.90;;;;;;5011295;28;20049;-52
2022/01/03 11:47:37;;;;;;;32.13;6.85;;;10.80;99.90;;;;;;4993201;28;20053;-54
2022/01/03 11:50:07;;;;;;;29.02;4.25;;;10.90;99.90;;;;;;5011128;28;20105;-54
2022/01/03 11:52:41;;;;;;;25.17;4.28;;;10.90;99.90;;;;;;5010838;28;20442;-54
2022/01/03 11:55:08;;;;;;;30.20;5.15;;;10.90;99.90;;;;;;5012240;28;20399;-53
2022/01/03 11:57:57;;;;;;;29.48;5.25;;;10.90;99.90;;;;;;5014725;28;20069;-55
2022/01/03 12:05:57;;;;;;;29.60;5.70;;;10.90;99.90;;;;;;5014720;28;20425;-55
2022/01/03 12:08:32;;;;;;;36.67;4.82;;;10.90;99.90;;;;;;5014419;28;20433;-54
2022/01/03 12:11:00;;;;;;;27.08;5.55;;;10.90;99.90;;;;;;5014548;28;20273;-54
2022/01/03 12:13:44;;;;;;;26.23;4.63;;;10.90;99.90;;;;;;4996671;28;20042;-54
2022/01/03 12:16:10;;;;;;;25.38;4.50;;;11.00;99.90;;;;;;5013731;28;20042;-54
2022/01/03 12:18:36;;;;;;;25.38;4.93;;;11.00;99.90;;;;;;5014423;28;20034;-54
2022/01/03 12:21:01;;;;;;;30.58;4.90;;;11.00;99.90;;;;;;5014426;28;20398;-55
2022/01/03 12:23:41;;;;;;;26.73;5.25;;;11.00;99.90;;;;;;5013991;28;20034;-54
2022/01/03 12:26:17;;;;;;;23.13;4.15;;;11.00;99.90;;;;;;5014028;28;20438;-54
2022/01/03 12:29:05;;;;;;;33.67;5.13;;;11.00;99.90;;;;;;5014152;28;20339;-55
2022/01/03 12:32:02;;;;;;;29.08;4.68;;;11.10;99.90;;;;;;5013507;28;20632;-54
2022/01/03 12:34:28;;;;;;;27.98;4.70;;;11.10;99.90;;;;;;5014162;28;20034;-54
2022/01/03 12:37:22;;;;;;;31.92;4.93;;;11.10;99.90;;;;;;5013855;28;20514;-55
2022/01/03 12:40:06;;;;;;;33.10;5.68;;;11.10;99.90;;;;;;5013866;28;20465;-54
2022/01/03 12:42:52;;;;;;;26.85;5.53;;;11.00;99.90;;;;;;5013590;28;20149;-54
2022/01/03 12:45:42;;;;;;;27.85;5.00;;;11.10;99.90;;;;;;5012927;28;20564;-51
2022/01/03 12:48:08;;;;;;;32.78;4.82;;;11.10;99.90;;;;;;5013658;28;20049;-54
2022/01/03 12:50:55;;;;;;;28.70;5.05;;;11.10;99.90;;;;;;5013566;28;20048;-54
2022/01/03 12:53:23;;;;;;;20.67;4.20;;;11.10;99.90;;;;;;5002529;28;20445;-54
2022/01/03 12:55:52;;;;;;;26.55;4.85;;;11.10;99.90;;;;;;4996078;28;20125;-53
2022/01/03 12:58:20;;;;;;;26.92;4.50;;;11.10;99.90;;;;;;5013590;28;20073;-54
2022/01/03 13:00:54;;;;;;;30.30;4.90;;;11.10;99.90;;;;;;5013069;28;20506;-53
2022/01/03 13:03:43;;;;;;;24.42;4.63;;;11.10;99.90;;;;;;5043929;22;20172;-52
2022/01/03 13:06:11;;;;;;;36.75;5.25;;;11.10;99.90;;;;;;5029497;28;20053;-53
2022/01/03 13:08:51;;;;;;;22.70;5.18;;;11.10;99.90;;;;;;5024271;28;20493;-53
2022/01/03 13:11:22;;;;;;;25.13;4.85;;;11.10;99.90;;;;;;5033322;28;20048;-53